Impacts TAF Board
For situational awareness. Not to be used for flight planning purposes.
IDs:

KMSY - New Orleans/Armstron, LA, US

Issued at 1120 UTC 09 Dec 2019
Updated at 1328 UTC 09 Dec 2019
Potential Impact None Slight Moderate High
Time1253Z 09/14Z 09/15Z 09/16Z 09/17Z 09/18Z 09/19Z 09/20Z 09/21Z 09/22Z 09/23Z 10/00Z 10/01Z 10/02Z>>
Type OBS PRVL PRVL PRVL PRVL PRVL PRVL PRVL PRVL PRVL PRVL PRVL PRVL PRVL
VIS 6 >6 >6 >6 >6 >6 >6 >6 >6 >6 >6 >6 >6 >6
CIG 220 25 25 25 25 25 25 25 25 25 25 25 25 25
Cover OVC BKN BKN BKN BKN BKN BKN BKN BKN BKN BKN BKN BKN BKN
FltCat VFR MVFR MVFR MVFR MVFR MVFR MVFR MVFR MVFR MVFR MVFR MVFR MVFR MVFR
WX BR -- -- -- -- -- -- -- -- -- -- -- -- --
WDir 160 180 180 180 180 180 180 180 180 180 180 180 180 180
WSpd 9 5 5 5 5 5 5 5 5 5 5 5 5 5
WGst -- -- -- -- -- -- -- -- -- -- -- -- -- --
R01/19
XWnd -5 -1 -1 -1 -1 -1 -1 -1 -1 -1 -1 -1 -1 -1
HWnd -7 -5 -5 -5 -5 -5 -5 -5 -5 -5 -5 -5 -5 -5
R10/28
XWnd -7 -5 -5 -5 -5 -5 -5 -5 -5 -5 -5 -5 -5 -5
HWnd 5 1 1 1 1 1 1 1 1 1 1 1 1 1
Raw TAF
KMSY 091120Z 0912/1018 15008KT P6SM FEW035 SCT150 BKN220
  FM091400 18005KT P6SM BKN025
  FM100800 VRB04KT 3SM BR SCT003 BKN020
  FM101200 00000KT P6SM -SHRA SCT003 OVC008
  FM101400 VRB04KT P6SM -SHRA SCT010 OVC090
  FM101500 18005KT P6SM -SHRA SCT003 OVC015


Raw METAR
KMSY 091253Z 16009KT 6SM BR FEW034 SCT044 OVC220 19/17 A2996 RMK AO2 SLP149 T01890167
KMSY 091153Z 15006KT 7SM BKN034 BKN150 OVC220 18/16 A2996 RMK AO2 SLP149 T01780161 10178 20150 55006
KMSY 091053Z 15008KT 7SM FEW034 SCT150 BKN220 17/15 A2996 RMK AO2 SLP146 T01720150

METAR Board
Radar Display
Forecast Discussion
For situational awareness. Not to be used for flight planning purposes.